createdAt,value
2016-09-01T00:00:15.340Z,1005.16
2016-09-01T00:00:37.242Z,1005.32
2016-09-01T00:00:59.019Z,1005.49
2016-09-01T00:01:20.937Z,1005.42
2016-09-01T00:02:09.383Z,1005.24
2016-09-01T00:02:31.129Z,1005.46
2016-09-01T00:02:53.913Z,1005.33
2016-09-01T00:03:15.663Z,1005.25
2016-09-01T00:03:37.415Z,1005.43
2016-09-01T00:03:59.168Z,1005.34
2016-09-01T00:04:20.975Z,1005.15
2016-09-01T00:04:43.814Z,1005.22
2016-09-01T00:05:10.371Z,1005.16
2016-09-01T00:05:32.138Z,1005.30
2016-09-01T00:05:53.967Z,1005.27
2016-09-01T00:06:42.593Z,1005.28
2016-09-01T00:07:04.596Z,1005.46
2016-09-01T00:07:26.509Z,1005.41
2016-09-01T00:07:48.521Z,1005.50
2016-09-01T00:08:15.097Z,1005.33
2016-09-01T00:08:36.925Z,1005.33
2016-09-01T00:09:03.580Z,1005.37
2016-09-01T00:09:25.430Z,1005.63
2016-09-01T00:09:47.251Z,1005.57
2016-09-01T00:10:09.008Z,1005.71
2016-09-01T00:10:35.526Z,1005.62
2016-09-01T00:10:57.360Z,1005.49
2016-09-01T00:11:20.201Z,1005.34
2016-09-01T00:11:41.974Z,1005.22
2016-09-01T00:12:05.011Z,1005.32
2016-09-01T00:12:26.899Z,1005.34
2016-09-01T00:12:49.657Z,1005.34
2016-09-01T00:13:16.176Z,1005.44
2016-09-01T00:13:37.962Z,1005.32
2016-09-01T00:13:59.699Z,1005.47
2016-09-01T00:14:27.203Z,1005.28
2016-09-01T00:14:53.722Z,1005.17
2016-09-01T00:15:15.491Z,1005.47
2016-09-01T00:15:37.245Z,1005.45
2016-09-01T00:15:58.999Z,1005.40
2016-09-01T00:16:20.816Z,1005.41
2016-09-01T00:16:42.557Z,1005.10
2016-09-01T00:17:04.306Z,1005.13
2016-09-01T00:18:03.956Z,1005.36
2016-09-01T00:18:25.711Z,1005.32
2016-09-01T00:18:48.448Z,1005.61
2016-09-01T00:19:10.205Z,1005.45
2016-09-01T00:19:31.984Z,1005.45
2016-09-01T00:20:34.345Z,1005.71
2016-09-01T00:21:00.864Z,1005.19
2016-09-01T00:21:27.379Z,1005.51
2016-09-01T00:21:50.137Z,1005.36
2016-09-01T00:22:19.292Z,1005.35
2016-09-01T00:22:41.309Z,1005.18
2016-09-01T00:23:34.912Z,1005.11
2016-09-01T00:23:56.800Z,1005.24
2016-09-01T00:24:23.293Z,1005.30
2016-09-01T00:24:47.836Z,1005.26
2016-09-01T00:25:09.632Z,1005.38
2016-09-01T00:25:36.151Z,1005.31
2016-09-01T00:26:02.650Z,1005.59
2016-09-01T00:26:24.537Z,1005.51
2016-09-01T00:26:46.540Z,1005.63
2016-09-01T00:27:08.282Z,1005.30
2016-09-01T00:27:32.727Z,1005.53
2016-09-01T00:28:23.536Z,1005.49
2016-09-01T00:28:50.960Z,1005.33
2016-09-01T00:29:17.465Z,1005.30
2016-09-01T00:29:39.278Z,1005.36
2016-09-01T00:30:01.240Z,1005.17
2016-09-01T00:30:22.979Z,1005.16
2016-09-01T00:30:44.706Z,1005.14
2016-09-01T00:31:09.351Z,1005.24
2016-09-01T00:31:35.886Z,1005.39
2016-09-01T00:31:57.690Z,1005.47
2016-09-01T00:32:22.383Z,1005.36
2016-09-01T00:32:44.109Z,1005.50
2016-09-01T00:33:05.862Z,1005.39
2016-09-01T00:33:27.684Z,1005.30
2016-09-01T00:33:52.188Z,1005.39
2016-09-01T00:34:14.029Z,1005.30
2016-09-01T00:34:35.847Z,1005.20
2016-09-01T00:35:05.335Z,1005.19
2016-09-01T00:35:27.146Z,1005.38
2016-09-01T00:35:53.664Z,1005.40
2016-09-01T00:36:15.479Z,1005.40
2016-09-01T00:36:40.074Z,1005.25
2016-09-01T00:37:01.821Z,1005.63
2016-09-01T00:37:23.571Z,1005.82
2016-09-01T00:38:13.126Z,1005.47
2016-09-01T00:38:34.953Z,1005.55
2016-09-01T00:38:56.797Z,1005.39
2016-09-01T00:39:46.087Z,1005.19
2016-09-01T00:40:17.350Z,1005.25
2016-09-01T00:40:39.089Z,1005.33
2016-09-01T00:41:01.828Z,1005.18
2016-09-01T00:41:23.575Z,1005.07
2016-09-01T00:41:45.308Z,1005.16
2016-09-01T00:42:07.134Z,1005.39
2016-09-01T00:42:29.946Z,1005.33
2016-09-01T00:42:51.802Z,1005.09
2016-09-01T00:43:13.550Z,1005.25
2016-09-01T00:43:35.283Z,1005.24
2016-09-01T00:43:57.053Z,1005.32
2016-09-01T00:44:18.857Z,1005.60
2016-09-01T00:44:41.584Z,1005.43
2016-09-01T00:45:03.357Z,1005.21
2016-09-01T00:45:26.103Z,1005.23
2016-09-01T00:45:52.631Z,1005.28
2016-09-01T00:46:15.379Z,1005.53
2016-09-01T00:46:38.118Z,1005.34
2016-09-01T00:47:04.621Z,1005.12
2016-09-01T00:47:26.359Z,1005.26
2016-09-01T00:47:48.205Z,1005.32
2016-09-01T00:48:14.720Z,1005.30
2016-09-01T00:48:36.451Z,1005.55
2016-09-01T00:48:58.293Z,1005.50
2016-09-01T00:49:21.134Z,1005.59
2016-09-01T00:49:50.606Z,1005.54
2016-09-01T00:50:13.911Z,1005.32
2016-09-01T00:50:35.645Z,1005.38
2016-09-01T00:50:57.408Z,1005.18
2016-09-01T00:51:19.141Z,1005.25
2016-09-01T00:51:40.883Z,1005.59
2016-09-01T00:52:30.237Z,1005.48
2016-09-01T00:52:52.077Z,1005.59
2016-09-01T00:53:13.822Z,1005.36
2016-09-01T00:53:40.445Z,1005.31
2016-09-01T00:54:02.275Z,1005.35
2016-09-01T00:54:28.862Z,1005.29
2016-09-01T00:54:50.597Z,1005.34
2016-09-01T00:55:38.675Z,1005.40
2016-09-01T00:56:01.520Z,1005.33
2016-09-01T00:56:23.264Z,1005.43
2016-09-01T00:56:44.989Z,1005.28
2016-09-01T00:57:06.771Z,1005.49
2016-09-01T00:57:56.005Z,1005.59
2016-09-01T00:58:17.734Z,1005.57
2016-09-01T00:58:39.543Z,1005.45
2016-09-01T00:59:01.321Z,1005.22
2016-09-01T00:59:25.091Z,1005.57
2016-09-01T00:59:46.958Z,1005.53
2016-09-01T01:00:11.699Z,1005.52
2016-09-01T01:00:38.193Z,1005.56
2016-09-01T01:01:29.229Z,1005.41
2016-09-01T01:01:50.981Z,1005.27
2016-09-01T01:02:17.482Z,1005.18
2016-09-01T01:02:39.213Z,1005.24
2016-09-01T01:03:10.532Z,1005.63
2016-09-01T01:03:32.281Z,1005.54
2016-09-01T01:03:55.031Z,1005.35
2016-09-01T01:04:21.639Z,1005.36
2016-09-01T01:04:48.186Z,1005.30
2016-09-01T01:05:15.687Z,1005.30
2016-09-01T01:05:37.418Z,1005.26
2016-09-01T01:05:59.177Z,1005.48
2016-09-01T01:06:20.909Z,1005.41
2016-09-01T01:06:43.645Z,1005.45
2016-09-01T01:07:05.419Z,1005.45
2016-09-01T01:07:27.162Z,1005.52
2016-09-01T01:07:49.040Z,1005.26
2016-09-01T01:08:10.845Z,1005.20
2016-09-01T01:08:32.663Z,1005.23
2016-09-01T01:08:54.394Z,1005.41
2016-09-01T01:09:16.147Z,1005.46
2016-09-01T01:09:42.458Z,1005.63
2016-09-01T01:10:04.378Z,1005.57
2016-09-01T01:10:29.107Z,1005.76
2016-09-01T01:10:50.839Z,1005.71
2016-09-01T01:11:12.564Z,1005.49
2016-09-01T01:11:34.298Z,1005.52
2016-09-01T01:11:56.045Z,1005.44
2016-09-01T01:12:20.617Z,1005.46
2016-09-01T01:12:42.355Z,1005.32
2016-09-01T01:13:04.077Z,1005.30
2016-09-01T01:13:30.573Z,1005.22
2016-09-01T01:13:55.116Z,1005.27
2016-09-01T01:14:16.960Z,1005.36
2016-09-01T01:14:42.324Z,1005.36
2016-09-01T01:15:04.145Z,1005.34
2016-09-01T01:15:28.467Z,1005.34
2016-09-01T01:15:50.230Z,1005.42
2016-09-01T01:16:12.014Z,1005.38
2016-09-01T01:16:33.740Z,1005.45
2016-09-01T01:16:55.462Z,1005.44
2016-09-01T01:17:17.181Z,1005.44
2016-09-01T01:17:41.424Z,1005.62
2016-09-01T01:18:03.162Z,1005.80
2016-09-01T01:18:27.590Z,1005.74
2016-09-01T01:18:49.370Z,1005.69
2016-09-01T01:19:13.728Z,1005.47
2016-09-01T01:19:35.449Z,1005.45
2016-09-01T01:19:59.936Z,1005.31
2016-09-01T01:20:21.652Z,1005.60
2016-09-01T01:20:43.379Z,1005.53
2016-09-01T01:21:05.101Z,1005.53
2016-09-01T01:21:26.823Z,1005.46
2016-09-01T01:21:48.540Z,1005.31
2016-09-01T01:22:12.966Z,1005.33
2016-09-01T01:22:34.726Z,1005.36
2016-09-01T01:22:56.452Z,1005.25
2016-09-01T01:23:18.201Z,1005.41
2016-09-01T01:23:44.697Z,1005.42
2016-09-01T01:24:11.200Z,1005.43
2016-09-01T01:24:37.695Z,1005.49
2016-09-01T01:24:59.469Z,1005.68
2016-09-01T01:25:25.968Z,1005.65
2016-09-01T01:25:48.681Z,1005.41
2016-09-01T01:26:15.181Z,1005.37
2016-09-01T01:26:36.911Z,1005.53
2016-09-01T01:27:03.507Z,1005.43
2016-09-01T01:27:25.238Z,1005.50
2016-09-01T01:27:46.969Z,1005.43
2016-09-01T01:28:08.701Z,1005.82
2016-09-01T01:28:30.432Z,1005.53
2016-09-01T01:28:54.733Z,1005.38
2016-09-01T01:29:16.509Z,1005.46
2016-09-01T01:29:38.233Z,1005.46
2016-09-01T01:29:59.961Z,1005.50
2016-09-01T01:30:21.699Z,1005.52
2016-09-01T01:30:43.482Z,1005.49
2016-09-01T01:31:05.353Z,1005.73
2016-09-01T01:31:55.664Z,1005.77
2016-09-01T01:32:17.453Z,1005.88
2016-09-01T01:32:39.184Z,1005.66
2016-09-01T01:33:01.943Z,1005.61
2016-09-01T01:33:23.738Z,1005.58
2016-09-01T01:33:50.234Z,1005.69
2016-09-01T01:34:11.958Z,1005.65
2016-09-01T01:34:33.676Z,1005.59
2016-09-01T01:35:00.193Z,1005.61
2016-09-01T01:35:21.936Z,1005.54
2016-09-01T01:35:43.664Z,1005.45
2016-09-01T01:36:05.830Z,1005.22
2016-09-01T01:36:28.598Z,1005.12
2016-09-01T01:36:52.323Z,1005.35
2016-09-01T01:37:15.241Z,1005.34
2016-09-01T01:37:36.983Z,1005.55
2016-09-01T01:37:58.700Z,1005.74
2016-09-01T01:38:20.432Z,1005.70
2016-09-01T01:38:47.020Z,1005.71
2016-09-01T01:39:08.755Z,1005.61
2016-09-01T01:39:30.483Z,1005.64
2016-09-01T01:39:54.995Z,1005.70
2016-09-01T01:40:16.723Z,1005.57
2016-09-01T01:40:41.165Z,1005.39
2016-09-01T01:41:02.883Z,1005.52
2016-09-01T01:41:24.615Z,1005.59
2016-09-01T01:41:49.199Z,1005.60
2016-09-01T01:42:13.481Z,1005.64
2016-09-01T01:42:39.978Z,1005.54
2016-09-01T01:43:01.703Z,1005.55
2016-09-01T01:43:24.032Z,1005.56
2016-09-01T01:43:48.364Z,1005.39
2016-09-01T01:44:10.099Z,1005.63
2016-09-01T01:44:36.387Z,1005.54
2016-09-01T01:44:58.128Z,1005.38
2016-09-01T01:45:19.913Z,1005.22
2016-09-01T01:45:41.641Z,1005.22
2016-09-01T01:46:03.373Z,1005.73
2016-09-01T01:46:25.219Z,1005.71
2016-09-01T01:46:50.080Z,1005.64
2016-09-01T01:47:14.377Z,1005.69
2016-09-01T01:47:41.200Z,1005.53
2016-09-01T01:48:34.259Z,1005.57
2016-09-01T01:48:55.977Z,1005.53
2016-09-01T01:49:17.703Z,1005.45
2016-09-01T01:49:39.476Z,1005.29
2016-09-01T01:50:01.218Z,1005.33
2016-09-01T01:50:23.021Z,1005.37
2016-09-01T01:50:49.513Z,1005.43
2016-09-01T01:51:11.239Z,1005.41
2016-09-01T01:51:32.963Z,1005.53
2016-09-01T01:51:57.415Z,1005.77
2016-09-01T01:52:19.331Z,1005.68
2016-09-01T01:52:41.094Z,1005.60
2016-09-01T01:53:29.414Z,1005.64
2016-09-01T01:53:51.190Z,1005.52
2016-09-01T01:54:12.918Z,1005.36
2016-09-01T01:54:34.645Z,1005.41
2016-09-01T01:54:57.376Z,1005.79
2016-09-01T01:55:23.878Z,1005.48
2016-09-01T01:55:45.603Z,1005.50
2016-09-01T01:56:07.330Z,1005.94
2016-09-01T01:56:33.833Z,1005.78
2016-09-01T01:57:00.327Z,1005.48
2016-09-01T01:57:22.135Z,1005.71
2016-09-01T01:57:43.951Z,1005.65
2016-09-01T01:58:06.719Z,1005.28
2016-09-01T01:58:28.470Z,1005.27
2016-09-01T01:58:53.059Z,1005.59
2016-09-01T01:59:14.781Z,1005.64
2016-09-01T01:59:41.297Z,1005.78
2016-09-01T02:00:03.117Z,1005.44
2016-09-01T02:00:25.050Z,1005.61
2016-09-01T02:00:51.549Z,1005.47
2016-09-01T02:01:13.401Z,1005.57
2016-09-01T02:01:35.351Z,1005.17
2016-09-01T02:01:58.380Z,1005.41
2016-09-01T02:02:24.889Z,1005.36
2016-09-01T02:02:47.750Z,1005.35
2016-09-01T02:03:09.533Z,1005.31
2016-09-01T02:03:58.822Z,1005.26
2016-09-01T02:04:20.547Z,1005.46
2016-09-01T02:04:43.267Z,1005.62
2016-09-01T02:05:05.014Z,1005.73
2016-09-01T02:05:26.729Z,1005.26
2016-09-01T02:05:53.226Z,1005.30
2016-09-01T02:06:17.513Z,1005.35
2016-09-01T02:06:40.403Z,1005.47
2016-09-01T02:07:34.237Z,1005.50
2016-09-01T02:07:56.090Z,1005.46
2016-09-01T02:08:17.830Z,1005.73
2016-09-01T02:08:39.564Z,1005.81
2016-09-01T02:09:03.878Z,1005.86
2016-09-01T02:09:25.667Z,1005.75
2016-09-01T02:09:47.395Z,1005.58
2016-09-01T02:10:09.114Z,1005.65
2016-09-01T02:10:30.838Z,1005.69
2016-09-01T02:10:52.617Z,1005.64
2016-09-01T02:11:14.371Z,1005.46
2016-09-01T02:11:36.076Z,1005.55
2016-09-01T02:11:57.801Z,1005.45
2016-09-01T02:12:19.535Z,1005.57
2016-09-01T02:12:46.207Z,1005.59
2016-09-01T02:13:07.837Z,1005.44
2016-09-01T02:13:37.132Z,1005.55
2016-09-01T02:13:58.870Z,1005.48
2016-09-01T02:14:20.615Z,1005.45
2016-09-01T02:14:44.893Z,1005.60
2016-09-01T02:15:06.703Z,1005.48
2016-09-01T02:15:28.467Z,1005.44
2016-09-01T02:15:50.205Z,1005.50
2016-09-01T02:16:11.933Z,1005.49
2016-09-01T02:17:08.006Z,1005.48
2016-09-01T02:17:29.872Z,1005.56
2016-09-01T02:17:54.659Z,1005.51
2016-09-01T02:18:21.164Z,1005.35
2016-09-01T02:18:47.685Z,1005.45
2016-09-01T02:19:09.497Z,1005.48
2016-09-01T02:19:31.277Z,1005.37
2016-09-01T02:19:55.919Z,1005.45
2016-09-01T02:20:27.180Z,1005.24
2016-09-01T02:20:48.909Z,1005.52
2016-09-01T02:21:10.646Z,1005.63
2016-09-01T02:21:37.346Z,1005.32
2016-09-01T02:21:59.078Z,1005.40
2016-09-01T02:22:20.826Z,1005.69
2016-09-01T02:22:44.774Z,1005.54
2016-09-01T02:23:11.269Z,1005.55
2016-09-01T02:24:09.086Z,1005.61
2016-09-01T02:24:35.583Z,1005.57
2016-09-01T02:25:27.651Z,1005.97
2016-09-01T02:25:49.402Z,1006.03
2016-09-01T02:26:11.147Z,1006.41
2016-09-01T02:26:33.869Z,1006.03
2016-09-01T02:27:00.428Z,1005.80
2016-09-01T02:27:22.310Z,1006.03
2016-09-01T02:27:44.182Z,1005.78
2016-09-01T02:28:05.948Z,1005.68
2016-09-01T02:28:27.782Z,1005.70
2016-09-01T02:28:49.469Z,1005.53
2016-09-01T02:29:12.220Z,1005.67
2016-09-01T02:29:33.945Z,1005.70
2016-09-01T02:29:55.753Z,1005.60
2016-09-01T02:30:17.584Z,1005.87
2016-09-01T02:30:39.462Z,1005.74
2016-09-01T02:31:01.247Z,1005.74
2016-09-01T02:31:22.972Z,1005.69
2016-09-01T02:31:44.704Z,1005.63
2016-09-01T02:32:07.446Z,1005.72
2016-09-01T02:33:03.133Z,1005.40
2016-09-01T02:33:24.857Z,1005.45
2016-09-01T02:33:46.662Z,1005.60
2016-09-01T02:34:08.463Z,1005.73
2016-09-01T02:34:30.208Z,1005.62
2016-09-01T02:34:51.978Z,1005.87
2016-09-01T02:35:13.708Z,1005.97
2016-09-01T02:36:08.733Z,1005.66
2016-09-01T02:36:30.484Z,1005.90
2016-09-01T02:36:52.221Z,1005.88
2016-09-01T02:37:19.805Z,1005.78
2016-09-01T02:37:41.555Z,1005.55
2016-09-01T02:38:03.280Z,1005.58
2016-09-01T02:38:25.037Z,1005.61
2016-09-01T02:38:46.977Z,1005.57
2016-09-01T02:39:11.663Z,1005.65
2016-09-01T02:39:33.392Z,1005.70
2016-09-01T02:40:24.476Z,1006.15
2016-09-01T02:40:50.989Z,1005.75
2016-09-01T02:41:12.759Z,1006.07
2016-09-01T02:41:34.483Z,1005.95
2016-09-01T02:41:56.267Z,1006.11
2016-09-01T02:42:18.054Z,1006.00
2016-09-01T02:42:39.789Z,1005.84
2016-09-01T02:43:01.516Z,1005.89
2016-09-01T02:43:28.019Z,1006.02
2016-09-01T02:43:53.290Z,1005.92
2016-09-01T02:44:17.619Z,1005.60
2016-09-01T02:44:39.376Z,1005.72
2016-09-01T02:45:01.193Z,1006.03
2016-09-01T02:45:35.526Z,1005.76
2016-09-01T02:46:00.035Z,1005.86
2016-09-01T02:46:21.759Z,1005.86
2016-09-01T02:46:43.496Z,1005.80
2016-09-01T02:47:09.868Z,1005.92
2016-09-01T02:47:31.587Z,1005.92
2016-09-01T02:47:58.179Z,1005.83
2016-09-01T02:48:22.540Z,1005.66
2016-09-01T02:48:49.052Z,1005.60
2016-09-01T02:49:10.787Z,1005.66
2016-09-01T02:49:32.659Z,1006.05
2016-09-01T02:49:57.436Z,1006.10
2016-09-01T02:50:23.948Z,1005.72
2016-09-01T02:50:45.711Z,1005.77
2016-09-01T02:51:12.259Z,1006.05
2016-09-01T02:51:34.095Z,1006.01
2016-09-01T02:51:55.846Z,1005.93
2016-09-01T02:52:25.080Z,1005.97
2016-09-01T02:53:22.245Z,1006.00
2016-09-01T02:53:50.120Z,1005.76
2016-09-01T02:54:12.062Z,1006.02
2016-09-01T02:54:43.371Z,1005.99
2016-09-01T02:55:31.794Z,1005.66
2016-09-01T02:55:58.421Z,1005.50
2016-09-01T02:56:20.257Z,1005.60
2016-09-01T02:56:43.103Z,1005.74
2016-09-01T02:57:41.099Z,1006.14
2016-09-01T02:58:02.997Z,1006.25
2016-09-01T02:58:27.580Z,1006.14
2016-09-01T02:58:49.519Z,1005.94
2016-09-01T02:59:16.074Z,1005.97
2016-09-01T02:59:38.889Z,1005.92
2016-09-01T03:00:00.713Z,1005.61
2016-09-01T03:00:22.533Z,1005.80
2016-09-01T03:00:44.343Z,1005.82
2016-09-01T03:01:06.184Z,1005.81
2016-09-01T03:01:27.995Z,1005.76
2016-09-01T03:01:49.854Z,1005.87
2016-09-01T03:02:11.829Z,1006.13
2016-09-01T03:02:33.662Z,1005.93
2016-09-01T03:02:55.505Z,1005.88
2016-09-01T03:03:17.339Z,1005.91
2016-09-01T03:03:43.915Z,1006.01
2016-09-01T03:04:05.732Z,1006.09
2016-09-01T03:04:32.376Z,1005.96
2016-09-01T03:04:54.332Z,1005.98
2016-09-01T03:05:16.366Z,1006.20
2016-09-01T03:05:38.251Z,1006.12
2016-09-01T03:06:05.249Z,1006.17
2016-09-01T03:06:27.112Z,1006.07
2016-09-01T03:06:48.952Z,1005.99
2016-09-01T03:07:10.776Z,1005.88
2016-09-01T03:07:35.578Z,1006.06
2016-09-01T03:07:59.915Z,1005.99
2016-09-01T03:08:21.781Z,1005.85
2016-09-01T03:08:43.771Z,1005.79
2016-09-01T03:09:06.686Z,1005.69
2016-09-01T03:09:28.709Z,1005.77
2016-09-01T03:10:17.125Z,1005.86
2016-09-01T03:10:43.719Z,1006.16
2016-09-01T03:11:05.613Z,1006.11
2016-09-01T03:11:56.854Z,1006.02
2016-09-01T03:12:19.585Z,1005.86
2016-09-01T03:12:44.953Z,1005.95
2016-09-01T03:13:37.810Z,1006.23
2016-09-01T03:14:00.634Z,1006.01
2016-09-01T03:14:32.921Z,1006.01
2016-09-01T03:15:02.378Z,1005.87
2016-09-01T03:15:25.209Z,1005.81
2016-09-01T03:16:13.452Z,1005.92
2016-09-01T03:16:41.020Z,1005.73
2016-09-01T03:17:03.763Z,1005.89
2016-09-01T03:17:25.571Z,1005.77
2016-09-01T03:18:16.486Z,1005.68
2016-09-01T03:18:39.312Z,1005.64
2016-09-01T03:19:02.157Z,1005.80
2016-09-01T03:19:50.419Z,1006.04
2016-09-01T03:20:13.171Z,1005.92
2016-09-01T03:20:34.950Z,1005.95
2016-09-01T03:20:57.683Z,1005.73
2016-09-01T03:21:46.909Z,1005.89
2016-09-01T03:22:13.408Z,1005.88
2016-09-01T03:22:35.164Z,1005.93
2016-09-01T03:22:56.909Z,1006.32
2016-09-01T03:23:18.637Z,1006.34
2016-09-01T03:23:40.358Z,1006.12
2016-09-01T03:24:03.087Z,1006.02
2016-09-01T03:24:24.867Z,1005.93
2016-09-01T03:24:46.742Z,1005.91
2016-09-01T03:25:10.567Z,1005.76
2016-09-01T03:25:34.927Z,1005.87
2016-09-01T03:25:57.776Z,1005.96
2016-09-01T03:26:19.523Z,1005.85
2016-09-01T03:26:41.276Z,1005.81
2016-09-01T03:27:03.068Z,1005.90
2016-09-01T03:27:24.944Z,1005.83
2016-09-01T03:27:46.697Z,1005.67
2016-09-01T03:28:09.424Z,1005.80
2016-09-01T03:28:35.122Z,1005.88
2016-09-01T03:28:56.870Z,1005.76
2016-09-01T03:29:21.261Z,1005.77
2016-09-01T03:29:42.995Z,1005.74
2016-09-01T03:30:09.500Z,1005.79
2016-09-01T03:30:37.120Z,1005.90
2016-09-01T03:30:58.938Z,1006.00
2016-09-01T03:31:31.263Z,1006.18
2016-09-01T03:31:52.995Z,1006.04
2016-09-01T03:32:14.716Z,1006.08
2016-09-01T03:32:37.437Z,1006.02
2016-09-01T03:32:59.325Z,1006.02
2016-09-01T03:33:21.123Z,1005.91
2016-09-01T03:33:43.854Z,1005.76
2016-09-01T03:34:05.789Z,1005.89
2016-09-01T03:34:27.548Z,1005.70
2016-09-01T03:34:54.061Z,1005.70
2016-09-01T03:35:21.574Z,1005.68
2016-09-01T03:35:45.079Z,1005.76
2016-09-01T03:36:07.852Z,1005.84
2016-09-01T03:36:30.601Z,1005.85
2016-09-01T03:37:01.875Z,1005.96
2016-09-01T03:37:23.634Z,1006.03
2016-09-01T03:37:48.976Z,1006.28
2016-09-01T03:38:10.707Z,1006.50
2016-09-01T03:38:32.422Z,1006.18
2016-09-01T03:38:56.963Z,1005.83
2016-09-01T03:39:21.264Z,1005.81
2016-09-01T03:39:50.665Z,1005.85
2016-09-01T03:40:41.437Z,1006.28
2016-09-01T03:41:04.180Z,1006.14
2016-09-01T03:41:28.566Z,1006.05
2016-09-01T03:41:50.294Z,1006.16
2016-09-01T03:42:12.291Z,1006.20
2016-09-01T03:42:34.099Z,1006.00
2016-09-01T03:43:00.461Z,1005.96
2016-09-01T03:43:22.265Z,1005.95
2016-09-01T03:43:48.765Z,1005.80
2016-09-01T03:44:37.059Z,1006.01
2016-09-01T03:44:58.809Z,1005.98
2016-09-01T03:45:20.534Z,1006.02
2016-09-01T03:45:49.776Z,1005.99
2016-09-01T03:46:11.542Z,1005.94
2016-09-01T03:46:40.780Z,1005.75
2016-09-01T03:47:02.551Z,1005.76
2016-09-01T03:47:24.291Z,1005.98
2016-09-01T03:47:46.038Z,1005.92
2016-09-01T03:48:13.303Z,1006.05
2016-09-01T03:48:37.625Z,1005.91
2016-09-01T03:48:59.567Z,1005.95
2016-09-01T03:49:29.040Z,1005.81
2016-09-01T03:49:50.829Z,1005.76
2016-09-01T03:50:12.617Z,1005.70
2016-09-01T03:50:34.438Z,1005.76
2016-09-01T03:50:56.252Z,1005.90
2016-09-01T03:51:18.231Z,1005.95
2016-09-01T03:51:40.086Z,1005.97
2016-09-01T03:52:02.832Z,1006.09
2016-09-01T03:52:27.497Z,1006.03
2016-09-01T03:52:51.848Z,1005.89
2016-09-01T03:53:13.562Z,1005.89
2016-09-01T03:53:40.064Z,1005.72
2016-09-01T03:54:01.808Z,1005.85
2016-09-01T03:54:23.561Z,1005.90
2016-09-01T03:54:45.308Z,1005.83
2016-09-01T03:55:09.872Z,1005.91
2016-09-01T03:55:34.159Z,1005.89
2016-09-01T03:55:58.540Z,1006.10
2016-09-01T03:56:20.659Z,1005.98
2016-09-01T03:56:42.525Z,1005.95
2016-09-01T03:57:04.409Z,1005.94
2016-09-01T03:57:26.275Z,1005.99
2016-09-01T03:57:48.077Z,1006.13
2016-09-01T03:58:12.611Z,1006.23
2016-09-01T03:58:34.940Z,1006.02
2016-09-01T03:58:56.688Z,1005.85
2016-09-01T03:59:19.466Z,1006.04
2016-09-01T03:59:41.210Z,1006.13
2016-09-01T04:00:02.992Z,1005.96
2016-09-01T04:00:24.726Z,1005.90
2016-09-01T04:00:46.448Z,1005.81
2016-09-01T04:01:08.189Z,1006.08
2016-09-01T04:01:56.323Z,1006.16
2016-09-01T04:02:18.054Z,1005.93
2016-09-01T04:02:39.838Z,1006.03
2016-09-01T04:03:01.580Z,1005.89
2016-09-01T04:03:23.357Z,1005.78
2016-09-01T04:03:45.215Z,1005.78
2016-09-01T04:04:14.559Z,1006.01
2016-09-01T04:04:39.184Z,1006.11
2016-09-01T04:05:27.420Z,1005.92
2016-09-01T04:05:49.174Z,1006.11
2016-09-01T04:06:10.899Z,1006.03
2016-09-01T04:06:37.462Z,1005.98
2016-09-01T04:07:04.105Z,1005.86
2016-09-01T04:07:28.642Z,1005.74
2016-09-01T04:07:55.187Z,1005.74
2016-09-01T04:08:29.188Z,1005.80
2016-09-01T04:09:25.161Z,1006.03
2016-09-01T04:09:46.959Z,1005.87
2016-09-01T04:10:08.764Z,1006.00
2016-09-01T04:10:30.496Z,1006.03
2016-09-01T04:10:54.959Z,1005.85
2016-09-01T04:11:16.755Z,1005.85
2016-09-01T04:11:38.586Z,1005.83
2016-09-01T04:12:02.931Z,1005.97
2016-09-01T04:12:27.263Z,1006.13
2016-09-01T04:12:49.014Z,1006.16
2016-09-01T04:13:13.453Z,1006.10
2016-09-01T04:13:35.295Z,1006.06
2016-09-01T04:13:57.037Z,1005.88
2016-09-01T04:14:18.799Z,1006.05
2016-09-01T04:14:47.826Z,1005.98
2016-09-01T04:15:14.348Z,1006.10
2016-09-01T04:15:38.986Z,1006.06
2016-09-01T04:16:00.752Z,1006.04
2016-09-01T04:16:32.025Z,1005.82
2016-09-01T04:16:53.754Z,1006.31
2016-09-01T04:17:15.472Z,1006.23
2016-09-01T04:17:37.187Z,1006.24
2016-09-01T04:17:58.924Z,1006.12
2016-09-01T04:18:20.639Z,1006.16
2016-09-01T04:18:42.403Z,1005.97
2016-09-01T04:19:04.126Z,1005.85
2016-09-01T04:19:25.849Z,1005.98
2016-09-01T04:19:47.593Z,1005.83
2016-09-01T04:20:09.322Z,1006.14
2016-09-01T04:20:31.105Z,1006.28
2016-09-01T04:20:52.832Z,1006.26
2016-09-01T04:21:14.556Z,1006.17
2016-09-01T04:21:36.285Z,1006.11
2016-09-01T04:21:58.016Z,1006.06
2016-09-01T04:22:19.744Z,1006.04
2016-09-01T04:22:41.481Z,1005.96
2016-09-01T04:23:03.220Z,1006.07
2016-09-01T04:23:24.938Z,1006.02
2016-09-01T04:23:46.649Z,1005.93
2016-09-01T04:24:08.371Z,1006.01
2016-09-01T04:24:30.100Z,1005.87
2016-09-01T04:24:51.831Z,1005.99
2016-09-01T04:25:13.549Z,1005.98
2016-09-01T04:25:35.273Z,1006.04
2016-09-01T04:25:56.989Z,1005.98
2016-09-01T04:26:18.717Z,1005.91
2016-09-01T04:26:40.440Z,1006.11
2016-09-01T04:27:02.153Z,1005.99
2016-09-01T04:27:23.878Z,1005.90
2016-09-01T04:27:45.603Z,1006.05
2016-09-01T04:28:07.319Z,1006.03
2016-09-01T04:28:29.041Z,1006.16
2016-09-01T04:28:50.764Z,1006.08
2016-09-01T04:29:12.496Z,1006.11
2016-09-01T04:29:34.225Z,1005.77
2016-09-01T04:29:55.942Z,1005.80
2016-09-01T04:30:17.667Z,1005.90
2016-09-01T04:30:39.482Z,1006.11
2016-09-01T04:31:01.187Z,1005.91
2016-09-01T04:31:22.905Z,1005.85
2016-09-01T04:31:44.627Z,1005.83
2016-09-01T04:32:06.345Z,1006.23
2016-09-01T04:32:28.080Z,1006.33
2016-09-01T04:32:49.798Z,1006.24
2016-09-01T04:33:11.514Z,1006.21
2016-09-01T04:33:33.235Z,1006.00
2016-09-01T04:33:54.954Z,1006.06
2016-09-01T04:34:16.678Z,1006.11
2016-09-01T04:34:43.168Z,1006.07
2016-09-01T04:35:05.159Z,1006.09
2016-09-01T04:35:26.880Z,1006.20
2016-09-01T04:35:48.602Z,1006.08
2016-09-01T04:36:10.323Z,1005.88
2016-09-01T04:36:32.045Z,1005.93
2016-09-01T04:36:53.865Z,1006.01
2016-09-01T04:37:15.591Z,1006.02
2016-09-01T04:37:37.322Z,1005.96
2016-09-01T04:37:59.059Z,1005.97
2016-09-01T04:38:20.777Z,1005.93
2016-09-01T04:38:42.502Z,1005.77
2016-09-01T04:39:04.221Z,1006.14
2016-09-01T04:39:25.942Z,1006.17
2016-09-01T04:39:47.657Z,1006.14
2016-09-01T04:40:09.392Z,1006.32
2016-09-01T04:40:31.123Z,1006.25
2016-09-01T04:40:52.841Z,1006.23
2016-09-01T04:41:14.567Z,1006.15
2016-09-01T04:41:36.294Z,1006.19
2016-09-01T04:41:58.009Z,1006.03
2016-09-01T04:42:19.728Z,1006.27
2016-09-01T04:42:41.443Z,1006.25
2016-09-01T04:43:03.171Z,1006.17
2016-09-01T04:43:24.899Z,1006.20
2016-09-01T04:43:46.634Z,1006.30
2016-09-01T04:44:08.349Z,1006.21
2016-09-01T04:44:30.070Z,1006.21
2016-09-01T04:44:51.805Z,1006.17
2016-09-01T04:45:13.536Z,1006.18
2016-09-01T04:45:35.296Z,1006.18
2016-09-01T04:45:57.014Z,1006.19
2016-09-01T04:46:18.742Z,1006.20
2016-09-01T04:46:40.461Z,1006.26
2016-09-01T04:47:02.192Z,1006.14
2016-09-01T04:47:23.910Z,1006.15
2016-09-01T04:47:45.766Z,1006.17
2016-09-01T04:48:07.478Z,1006.22
2016-09-01T04:48:29.203Z,1005.90
2016-09-01T04:48:50.949Z,1005.91
2016-09-01T04:49:12.671Z,1005.97
2016-09-01T04:49:34.394Z,1006.13
2016-09-01T04:49:56.131Z,1006.23
2016-09-01T04:50:17.849Z,1006.17
2016-09-01T04:50:39.581Z,1006.11
2016-09-01T04:51:01.309Z,1006.22
2016-09-01T04:51:23.029Z,1006.21
2016-09-01T04:51:44.761Z,1006.27
2016-09-01T04:52:06.490Z,1006.24
2016-09-01T04:52:28.202Z,1006.23
2016-09-01T04:52:49.952Z,1006.45
2016-09-01T04:53:11.674Z,1006.61
2016-09-01T04:53:33.404Z,1006.68
2016-09-01T04:53:55.129Z,1006.48
2016-09-01T04:54:16.864Z,1006.32
2016-09-01T04:54:38.578Z,1006.32
2016-09-01T04:55:00.320Z,1006.34
2016-09-01T04:55:22.140Z,1006.28
2016-09-01T04:55:44.349Z,1006.24
2016-09-01T04:56:06.079Z,1006.15
2016-09-01T04:56:27.821Z,1006.37